Yongshujiao, China
Current Conditions -  °F | °C
As of 8:00 PM on Friday 24 Oct 2014 (Local Time) from VVCR Reporting Station
Broken Clouds Broken Clouds  
Wind Chill: 82°   Ceiling: 27000
Heat Index: 89°   Visibility: 6mi
Dew Point: 75°   Wind: 9mph
Humidity: 79%   Direction: 60°ENE
Pressure: 29.85"   Gusts: NA
Location:  9.53°N, 112.88°E
Report Text: VVCR 241200Z 06008KT 9999 FEW015 BKN270 28/24 Q1011 NOSIG
Loading
Personal Weather Stations






























Interactive Weather Map
Tropical Storm Tracking
New forecast layout! Learn more

10-Day Weather Forecast

Advertisements
Track Severe Weather on mobile